createdAt,value
2022-12-05T00:02:08.872Z,74.58
2022-12-05T00:04:37.176Z,74.57
2022-12-05T00:07:05.541Z,74.88
2022-12-05T00:09:33.753Z,74.87
2022-12-05T00:12:02.017Z,74.77
2022-12-05T00:14:30.243Z,75.00
2022-12-05T00:16:58.522Z,75.20
2022-12-05T00:19:28.179Z,75.14
2022-12-05T00:21:57.826Z,75.12
2022-12-05T00:24:26.363Z,74.92
2022-12-05T00:26:54.738Z,74.59
2022-12-05T00:29:23.089Z,74.79
2022-12-05T00:31:51.352Z,74.83
2022-12-05T00:34:19.718Z,74.67
2022-12-05T00:36:49.413Z,74.58
2022-12-05T00:39:17.754Z,74.46
2022-12-05T00:41:45.950Z,74.63
2022-12-05T00:44:14.773Z,75.19
2022-12-05T00:46:43.218Z,75.27
2022-12-05T00:49:12.934Z,75.07
2022-12-05T00:51:43.034Z,74.95
2022-12-05T00:54:14.383Z,74.58
2022-12-05T00:56:43.224Z,74.64
2022-12-05T00:59:15.932Z,74.46
2022-12-05T01:01:45.916Z,74.24
2022-12-05T01:04:16.645Z,74.04
2022-12-05T01:06:46.548Z,74.21
2022-12-05T01:09:18.789Z,74.35
2022-12-05T01:11:47.465Z,74.11
2022-12-05T01:14:17.637Z,74.23
2022-12-05T01:16:48.057Z,74.14
2022-12-05T01:19:19.222Z,74.71
2022-12-05T01:21:48.242Z,74.95
2022-12-05T01:24:19.164Z,74.95
2022-12-05T01:26:48.395Z,74.94
2022-12-05T01:29:18.961Z,75.13
2022-12-05T01:31:47.472Z,74.68
2022-12-05T01:34:17.405Z,74.31
2022-12-05T01:36:46.147Z,74.58
2022-12-05T01:39:14.883Z,74.54
2022-12-05T01:41:48.109Z,74.47
2022-12-05T01:44:53.604Z,74.02
2022-12-05T01:47:24.108Z,74.90
2022-12-05T01:49:52.417Z,74.90
2022-12-05T01:52:25.016Z,74.33
2022-12-05T01:54:58.046Z,74.17
2022-12-05T01:57:27.993Z,74.53
2022-12-05T02:00:01.465Z,74.49
2022-12-05T02:02:41.659Z,74.13
2022-12-05T02:05:16.441Z,74.08
2022-12-05T02:07:45.514Z,73.80
2022-12-05T02:10:13.923Z,74.54
2022-12-05T02:12:45.205Z,74.87
2022-12-05T02:15:33.700Z,74.36
2022-12-05T02:18:14.398Z,74.25
2022-12-05T02:20:55.725Z,74.35
2022-12-05T02:24:02.112Z,74.21
2022-12-05T02:26:53.347Z,74.17
2022-12-05T02:29:59.070Z,74.25
2022-12-05T02:32:39.432Z,73.85
2022-12-05T02:35:17.375Z,73.90
2022-12-05T02:37:55.469Z,74.25
2022-12-05T02:40:31.722Z,74.11
2022-12-05T02:43:03.290Z,73.97
2022-12-05T02:45:37.034Z,74.31
2022-12-05T02:48:07.172Z,74.41
2022-12-05T02:50:39.002Z,74.22
2022-12-05T02:53:12.271Z,74.38
2022-12-05T02:55:42.831Z,73.81
2022-12-05T02:58:17.578Z,73.71
2022-12-05T03:00:50.519Z,73.67
2022-12-05T03:03:22.408Z,73.81
2022-12-05T03:05:58.332Z,73.80
2022-12-05T03:08:31.039Z,74.52
2022-12-05T03:11:02.748Z,74.88
2022-12-05T03:13:35.185Z,75.00
2022-12-05T03:16:09.438Z,74.76
2022-12-05T03:18:40.871Z,74.77
2022-12-05T03:21:20.499Z,74.46
2022-12-05T03:23:52.376Z,74.18
2022-12-05T03:26:37.471Z,74.68
2022-12-05T03:29:28.096Z,74.66
2022-12-05T03:32:07.143Z,74.72
2022-12-05T03:34:51.113Z,74.88
2022-12-05T03:37:27.399Z,74.84
2022-12-05T03:40:05.731Z,75.11
2022-12-05T03:42:37.519Z,75.82
2022-12-05T03:45:09.644Z,75.40
2022-12-05T03:47:46.622Z,75.07
2022-12-05T03:50:21.313Z,74.98
2022-12-05T03:53:18.585Z,74.91
2022-12-05T03:55:46.695Z,74.88
2022-12-05T03:58:21.896Z,74.69
2022-12-05T04:00:54.628Z,74.74
2022-12-05T04:03:39.161Z,74.79
2022-12-05T04:06:13.631Z,74.86
2022-12-05T04:08:48.559Z,75.05
2022-12-05T04:11:20.528Z,74.95
2022-12-05T04:13:51.965Z,74.44
2022-12-05T04:16:42.410Z,74.57
2022-12-05T04:19:18.756Z,74.82
2022-12-05T04:21:50.908Z,74.80
2022-12-05T04:24:41.007Z,74.79
2022-12-05T04:27:24.271Z,74.88
2022-12-05T04:30:02.639Z,74.65
2022-12-05T04:32:38.675Z,74.96
2022-12-05T04:35:15.419Z,74.84
2022-12-05T04:37:48.960Z,74.66
2022-12-05T04:40:23.751Z,74.75
2022-12-05T04:42:54.761Z,74.36
2022-12-05T04:45:25.828Z,74.29
2022-12-05T04:48:00.245Z,74.10
2022-12-05T04:50:33.421Z,74.33
2022-12-05T04:53:04.355Z,73.96
2022-12-05T04:55:36.931Z,74.19
2022-12-05T04:58:10.189Z,74.26
2022-12-05T05:00:47.268Z,74.72
2022-12-05T05:03:21.862Z,74.32
2022-12-05T05:05:55.606Z,74.51
2022-12-05T05:08:25.763Z,74.71
2022-12-05T05:11:05.152Z,74.19
2022-12-05T05:13:33.514Z,74.84
2022-12-05T05:16:01.737Z,74.83
2022-12-05T05:18:30.119Z,74.35
2022-12-05T05:20:59.732Z,74.29
2022-12-05T05:23:27.984Z,75.10
2022-12-05T05:25:57.313Z,74.85
2022-12-05T05:28:25.560Z,75.19
2022-12-05T05:30:53.837Z,74.92
2022-12-05T05:33:22.202Z,75.28
2022-12-05T05:35:50.449Z,75.08
2022-12-05T05:38:20.096Z,75.08
2022-12-05T05:40:48.408Z,75.68
2022-12-05T05:43:16.754Z,75.58
2022-12-05T05:45:45.029Z,75.92
2022-12-05T05:48:13.344Z,74.92
2022-12-05T05:50:41.651Z,74.92
2022-12-05T05:53:12.684Z,74.90
2022-12-05T05:55:42.558Z,74.84
2022-12-05T05:58:11.143Z,74.57
2022-12-05T06:00:39.443Z,74.83
2022-12-05T06:03:07.928Z,74.84
2022-12-05T06:05:36.326Z,74.86
2022-12-05T06:08:05.350Z,74.53
2022-12-05T06:10:33.696Z,74.59
2022-12-05T06:13:03.503Z,74.86
2022-12-05T06:15:32.770Z,75.08
2022-12-05T06:18:01.080Z,74.82
2022-12-05T06:20:29.288Z,74.42
2022-12-05T06:22:57.597Z,74.68
2022-12-05T06:25:25.907Z,74.64
2022-12-05T06:27:54.257Z,74.58
2022-12-05T06:30:23.957Z,74.73
2022-12-05T06:32:52.223Z,74.52
2022-12-05T06:35:20.517Z,74.53
2022-12-05T06:37:48.786Z,75.05
2022-12-05T06:40:17.107Z,75.02
2022-12-05T06:42:45.320Z,74.58
2022-12-05T06:45:13.634Z,75.15
2022-12-05T06:47:43.265Z,74.89
2022-12-05T06:50:12.625Z,74.52
2022-12-05T06:52:40.901Z,75.14
2022-12-05T06:55:10.015Z,75.37
2022-12-05T06:57:38.341Z,75.24
2022-12-05T07:00:25.207Z,75.10
2022-12-05T07:02:55.088Z,74.91
2022-12-05T07:05:23.253Z,74.84
2022-12-05T07:07:51.650Z,74.76
2022-12-05T07:10:20.212Z,75.27
2022-12-05T07:12:48.551Z,75.30
2022-12-05T07:15:16.978Z,75.51
2022-12-05T07:17:45.360Z,74.83
2022-12-05T07:20:17.869Z,75.14
2022-12-05T07:22:46.779Z,75.28
2022-12-05T07:25:15.123Z,75.12
2022-12-05T07:27:43.507Z,75.45
2022-12-05T07:30:12.388Z,75.62
2022-12-05T07:32:40.691Z,75.64
2022-12-05T07:35:09.660Z,75.65
2022-12-05T07:37:39.420Z,75.58
2022-12-05T07:40:09.048Z,75.53
2022-12-05T07:42:37.492Z,75.70
2022-12-05T07:45:06.384Z,75.65
2022-12-05T07:47:34.901Z,76.13
2022-12-05T07:50:03.187Z,76.36
2022-12-05T07:52:31.480Z,76.07
2022-12-05T07:55:01.286Z,75.79
2022-12-05T07:57:31.140Z,75.56
2022-12-05T07:59:59.596Z,74.65
2022-12-05T08:02:28.097Z,74.77
2022-12-05T08:04:56.543Z,74.75
2022-12-05T08:07:24.953Z,74.81
2022-12-05T08:09:53.202Z,75.14
2022-12-05T08:12:22.938Z,74.77
2022-12-05T08:14:51.212Z,74.59
2022-12-05T08:17:19.692Z,74.90
2022-12-05T08:19:47.967Z,75.15
2022-12-05T08:22:16.264Z,75.07
2022-12-05T08:24:44.701Z,75.53
2022-12-05T08:27:12.979Z,75.65
2022-12-05T08:29:42.802Z,76.00
2022-12-05T08:32:11.050Z,75.79
2022-12-05T08:34:40.312Z,76.33
2022-12-05T08:37:08.612Z,75.21
2022-12-05T08:39:38.881Z,74.71
2022-12-05T08:42:07.443Z,72.95
2022-12-05T08:44:35.704Z,71.84
2022-12-05T08:47:05.452Z,71.32
2022-12-05T08:49:33.887Z,70.53
2022-12-05T08:52:02.180Z,70.30
2022-12-05T08:54:30.419Z,70.49
2022-12-05T08:56:59.496Z,70.07
2022-12-05T08:59:27.782Z,70.15
2022-12-05T09:01:57.135Z,69.98
2022-12-05T09:04:26.873Z,69.90
2022-12-05T09:06:55.192Z,70.05
2022-12-05T09:09:23.524Z,70.52
2022-12-05T09:11:52.223Z,70.39
2022-12-05T09:14:20.488Z,70.07
2022-12-05T09:16:49.134Z,70.68
2022-12-05T09:19:20.818Z,70.60
2022-12-05T09:21:50.745Z,70.90
2022-12-05T09:24:19.131Z,70.97
2022-12-05T09:26:47.866Z,70.76
2022-12-05T09:29:17.728Z,70.73
2022-12-05T09:31:48.136Z,70.89
2022-12-05T09:34:18.638Z,70.34
2022-12-05T09:36:55.706Z,69.70
2022-12-05T09:39:31.333Z,69.93
2022-12-05T09:42:39.522Z,69.74
2022-12-05T09:45:17.838Z,70.11
2022-12-05T09:47:58.866Z,69.56
2022-12-05T09:50:29.410Z,69.71
2022-12-05T09:53:06.794Z,69.82
2022-12-05T09:55:47.378Z,69.92
2022-12-05T09:58:23.627Z,69.51
2022-12-05T10:00:55.914Z,68.62
2022-12-05T10:03:30.664Z,68.86
2022-12-05T10:06:11.029Z,68.89
2022-12-05T10:09:01.096Z,69.23
2022-12-05T10:11:38.489Z,69.77
2022-12-05T10:14:12.955Z,69.67
2022-12-05T10:16:48.312Z,69.83
2022-12-05T10:19:21.467Z,70.24
2022-12-05T10:21:56.798Z,69.72
2022-12-05T10:24:30.948Z,69.49
2022-12-05T10:27:03.809Z,69.35
2022-12-05T10:29:36.857Z,69.18
2022-12-05T10:32:12.108Z,67.92
2022-12-05T10:34:42.198Z,67.51
2022-12-05T10:37:15.101Z,66.34
2022-12-05T10:39:43.466Z,66.06
2022-12-05T10:42:16.769Z,66.16
2022-12-05T10:44:45.614Z,65.67
2022-12-05T10:47:14.176Z,66.43
2022-12-05T10:49:43.411Z,66.81
2022-12-05T10:52:15.393Z,66.70
2022-12-05T10:54:48.538Z,66.78
2022-12-05T10:57:26.628Z,66.72
2022-12-05T10:59:56.672Z,65.30
2022-12-05T11:02:28.804Z,65.64
2022-12-05T11:04:58.721Z,66.21
2022-12-05T11:07:32.747Z,65.63
2022-12-05T11:10:03.142Z,66.88
2022-12-05T11:12:38.867Z,67.46
2022-12-05T11:15:24.429Z,67.15
2022-12-05T11:17:53.821Z,67.74
2022-12-05T11:20:42.216Z,67.49
2022-12-05T11:23:26.042Z,66.69
2022-12-05T11:25:55.059Z,67.45
2022-12-05T11:28:42.208Z,66.90
2022-12-05T11:31:23.969Z,66.61
2022-12-05T11:34:18.380Z,66.71
2022-12-05T11:36:54.241Z,67.16
2022-12-05T11:39:22.557Z,66.36
2022-12-05T11:42:04.228Z,66.89
2022-12-05T11:44:52.966Z,67.32
2022-12-05T11:47:34.165Z,67.33
2022-12-05T11:50:16.223Z,67.57
2022-12-05T11:52:56.547Z,67.40
2022-12-05T11:55:28.091Z,66.86
2022-12-05T11:58:22.076Z,67.17
2022-12-05T12:01:04.788Z,67.86
2022-12-05T12:04:01.465Z,67.73
2022-12-05T12:06:34.996Z,66.09
2022-12-05T12:09:24.651Z,66.25
2022-12-05T12:12:01.743Z,66.47
2022-12-05T12:14:40.605Z,66.63
2022-12-05T12:17:19.945Z,67.01
2022-12-05T12:20:18.235Z,67.68
2022-12-05T12:23:00.168Z,66.74
2022-12-05T12:25:41.055Z,66.83
2022-12-05T12:28:27.620Z,66.77
2022-12-05T12:31:07.832Z,66.45
2022-12-05T12:33:47.845Z,66.90
2022-12-05T12:36:20.229Z,66.25
2022-12-05T12:39:12.481Z,65.23
2022-12-05T12:41:57.194Z,65.63
2022-12-05T12:44:46.568Z,65.33
2022-12-05T12:47:24.840Z,66.04
2022-12-05T12:50:03.943Z,66.11
2022-12-05T12:52:45.257Z,65.10
2022-12-05T12:55:23.238Z,65.61
2022-12-05T12:58:04.721Z,65.66
2022-12-05T13:00:45.235Z,65.06
2022-12-05T13:03:19.016Z,65.81
2022-12-05T13:05:51.484Z,64.13
2022-12-05T13:08:26.263Z,64.88
2022-12-05T13:10:55.412Z,64.15
2022-12-05T13:13:30.649Z,64.47
2022-12-05T13:16:02.003Z,63.83
2022-12-05T13:18:30.356Z,63.00
2022-12-05T13:21:02.582Z,63.50
2022-12-05T13:23:34.112Z,64.12
2022-12-05T13:26:08.944Z,64.68
2022-12-05T13:28:42.418Z,64.15
2022-12-05T13:31:14.231Z,64.57
2022-12-05T13:33:46.726Z,64.53
2022-12-05T13:36:36.627Z,64.38
2022-12-05T13:39:24.906Z,64.12
2022-12-05T13:42:14.627Z,64.66
2022-12-05T13:44:46.028Z,63.84
2022-12-05T13:47:29.973Z,64.16
2022-12-05T13:50:04.032Z,64.40
2022-12-05T13:52:41.589Z,65.21
2022-12-05T13:55:23.880Z,65.17
2022-12-05T13:57:54.414Z,64.93
2022-12-05T14:00:34.064Z,64.26
2022-12-05T14:03:04.789Z,64.74
2022-12-05T14:05:47.953Z,65.16
2022-12-05T14:08:55.407Z,64.41
2022-12-05T14:11:24.831Z,65.05
2022-12-05T14:13:53.670Z,64.64
2022-12-05T14:16:50.328Z,64.49
2022-12-05T14:19:46.803Z,63.12
2022-12-05T14:22:51.883Z,62.54
2022-12-05T14:25:35.587Z,63.02
2022-12-05T14:28:17.037Z,62.85
2022-12-05T14:30:56.509Z,62.61
2022-12-05T14:33:25.086Z,63.66
2022-12-05T14:35:54.553Z,64.20
2022-12-05T14:38:28.966Z,64.88
2022-12-05T14:41:12.530Z,65.41
2022-12-05T14:43:42.702Z,65.87
2022-12-05T14:46:19.614Z,66.02
2022-12-05T14:48:49.364Z,65.64
2022-12-05T14:51:46.729Z,66.05
2022-12-05T14:54:18.915Z,66.01
2022-12-05T14:56:52.749Z,66.76
2022-12-05T14:59:27.353Z,67.00
2022-12-05T15:01:58.395Z,67.19
2022-12-05T15:04:36.904Z,67.79
2022-12-05T15:07:10.444Z,67.75
2022-12-05T15:09:52.423Z,68.40
2022-12-05T15:12:27.247Z,67.88
2022-12-05T15:15:19.942Z,68.97
2022-12-05T15:17:51.730Z,68.92
2022-12-05T15:20:35.502Z,68.60
2022-12-05T15:23:39.219Z,69.21
2022-12-05T15:26:45.470Z,69.08
2022-12-05T15:29:11.288Z,68.93
2022-12-05T15:31:45.784Z,69.38
2022-12-05T15:34:19.251Z,69.49
2022-12-05T15:36:55.636Z,69.91
2022-12-05T15:39:25.933Z,70.36
2022-12-05T15:41:55.499Z,70.52
2022-12-05T15:44:35.958Z,69.48
2022-12-05T15:47:06.351Z,70.10
2022-12-05T15:49:37.664Z,70.39
2022-12-05T15:52:27.336Z,69.93
2022-12-05T15:54:55.991Z,71.27
2022-12-05T15:57:29.828Z,71.26
2022-12-05T16:00:04.040Z,70.61
2022-12-05T16:02:45.355Z,71.18
2022-12-05T16:05:22.523Z,71.81
2022-12-05T16:07:54.161Z,71.56
2022-12-05T16:10:29.136Z,71.33
2022-12-05T16:13:05.484Z,71.91
2022-12-05T16:15:35.775Z,71.27
2022-12-05T16:18:06.194Z,71.50
2022-12-05T16:20:36.779Z,71.55
2022-12-05T16:23:07.563Z,71.61
2022-12-05T16:25:37.647Z,71.51
2022-12-05T16:28:18.419Z,71.56
2022-12-05T16:31:00.429Z,71.27
2022-12-05T16:33:30.652Z,71.69
2022-12-05T16:36:09.220Z,70.87
2022-12-05T16:38:38.622Z,71.76
2022-12-05T16:41:09.396Z,71.96
2022-12-05T16:43:47.619Z,71.64
2022-12-05T16:46:45.471Z,71.21
2022-12-05T16:49:24.361Z,71.53
2022-12-05T16:52:00.708Z,71.76
2022-12-05T16:54:29.052Z,72.27
2022-12-05T16:56:57.701Z,72.05
2022-12-05T16:59:32.427Z,72.52
2022-12-05T17:02:03.736Z,72.25
2022-12-05T17:04:32.598Z,72.37
2022-12-05T17:07:01.021Z,72.62
2022-12-05T17:09:30.453Z,73.01
2022-12-05T17:12:03.851Z,72.90
2022-12-05T17:14:32.153Z,72.99
2022-12-05T17:17:02.821Z,72.95
2022-12-05T17:19:31.196Z,73.05
2022-12-05T17:21:59.488Z,73.30
2022-12-05T17:24:28.566Z,73.93
2022-12-05T17:26:56.926Z,73.57
2022-12-05T17:29:25.376Z,73.79
2022-12-05T17:31:55.476Z,73.49
2022-12-05T17:34:25.217Z,73.60
2022-12-05T17:36:53.518Z,73.66
2022-12-05T17:39:27.876Z,73.70
2022-12-05T17:41:56.829Z,73.54
2022-12-05T17:44:26.215Z,73.42
2022-12-05T17:46:54.688Z,73.65
2022-12-05T17:49:25.201Z,73.72
2022-12-05T17:52:24.542Z,74.08
2022-12-05T17:54:43.079Z,73.81
2022-12-05T17:57:11.500Z,73.76
2022-12-05T17:59:39.711Z,72.07
2022-12-05T18:02:08.159Z,72.79
2022-12-05T18:04:40.050Z,72.92
2022-12-05T18:07:09.853Z,73.08
2022-12-05T18:09:39.174Z,72.80
2022-12-05T18:12:07.649Z,73.64
2022-12-05T18:14:36.215Z,73.37
2022-12-05T18:17:04.698Z,73.23
2022-12-05T18:19:33.054Z,73.28
2022-12-05T18:22:02.694Z,72.89
2022-12-05T18:24:31.110Z,72.41
2022-12-05T18:27:00.880Z,72.41
2022-12-05T18:29:29.237Z,72.20
2022-12-05T18:31:57.653Z,72.96
2022-12-05T18:34:26.063Z,73.05
2022-12-05T18:36:56.189Z,73.58
2022-12-05T18:39:25.950Z,73.78
2022-12-05T18:41:54.461Z,73.74
2022-12-05T18:44:22.687Z,74.10
2022-12-05T18:46:51.094Z,74.09
2022-12-05T18:49:19.419Z,74.36
2022-12-05T18:51:48.928Z,74.17
2022-12-05T18:54:18.112Z,73.82
2022-12-05T18:56:50.401Z,73.11
2022-12-05T18:59:20.300Z,72.92
2022-12-05T19:01:48.672Z,73.14
2022-12-05T19:04:18.992Z,73.50
2022-12-05T19:06:50.030Z,73.03
2022-12-05T19:09:20.716Z,73.31
2022-12-05T19:11:52.329Z,73.04
2022-12-05T19:14:21.071Z,73.96
2022-12-05T19:16:54.944Z,73.79
2022-12-05T19:19:27.439Z,73.58
2022-12-05T19:21:56.683Z,72.59
2022-12-05T19:24:25.192Z,72.46
2022-12-05T19:26:54.984Z,72.11
2022-12-05T19:29:23.485Z,72.54
2022-12-05T19:31:52.838Z,72.90
2022-12-05T19:34:21.383Z,72.92
2022-12-05T19:36:49.566Z,73.11
2022-12-05T19:39:20.272Z,73.22
2022-12-05T19:41:49.436Z,70.84
2022-12-05T19:44:19.399Z,71.33
2022-12-05T19:46:49.359Z,71.96
2022-12-05T19:49:18.519Z,72.10
2022-12-05T19:51:48.829Z,72.93
2022-12-05T19:54:19.658Z,73.07
2022-12-05T19:56:48.040Z,73.24
2022-12-05T19:59:18.565Z,72.95
2022-12-05T20:01:46.904Z,73.61
2022-12-05T20:04:17.282Z,73.34
2022-12-05T20:06:48.638Z,73.34
2022-12-05T20:09:18.815Z,73.53
2022-12-05T20:11:55.238Z,73.35
2022-12-05T20:14:26.810Z,73.13
2022-12-05T20:16:55.428Z,72.99
2022-12-05T20:19:24.115Z,72.66
2022-12-05T20:21:52.616Z,73.38
2022-12-05T20:24:20.939Z,73.26
2022-12-05T20:26:49.212Z,72.79
2022-12-05T20:29:17.513Z,72.50
2022-12-05T20:31:47.408Z,72.85
2022-12-05T20:34:15.981Z,72.74
2022-12-05T20:36:44.425Z,72.61
2022-12-05T20:39:15.818Z,73.17
2022-12-05T20:41:44.411Z,73.02
2022-12-05T20:44:15.599Z,72.36
2022-12-05T20:46:44.028Z,72.54
2022-12-05T20:49:15.011Z,72.52
2022-12-05T20:51:44.762Z,72.27
2022-12-05T20:54:14.095Z,72.44
2022-12-05T20:56:42.978Z,72.67
2022-12-05T20:59:13.519Z,72.47
2022-12-05T21:01:42.049Z,73.66
2022-12-05T21:04:10.697Z,73.13
2022-12-05T21:06:42.940Z,73.72
2022-12-05T21:09:15.973Z,73.77
2022-12-05T21:11:44.420Z,74.17
2022-12-05T21:14:12.905Z,73.96
2022-12-05T21:16:41.565Z,73.23
2022-12-05T21:19:10.164Z,73.07
2022-12-05T21:21:40.140Z,72.87
2022-12-05T21:24:09.029Z,72.98
2022-12-05T21:26:37.759Z,72.77
2022-12-05T21:29:08.347Z,72.76
2022-12-05T21:31:38.270Z,73.03
2022-12-05T21:34:08.773Z,73.40
2022-12-05T21:36:38.150Z,73.51
2022-12-05T21:39:08.504Z,73.10
2022-12-05T21:41:37.406Z,73.05
2022-12-05T21:44:06.250Z,73.08
2022-12-05T21:46:35.052Z,73.38
2022-12-05T21:49:03.453Z,72.88
2022-12-05T21:51:31.799Z,73.40
2022-12-05T21:54:00.072Z,73.76
2022-12-05T21:56:30.027Z,74.05
2022-12-05T21:58:58.381Z,74.23
2022-12-05T22:01:28.552Z,75.16
2022-12-05T22:03:59.552Z,75.16
2022-12-05T22:06:28.098Z,75.38
2022-12-05T22:08:57.474Z,75.25
2022-12-05T22:11:25.867Z,73.11
2022-12-05T22:13:55.599Z,74.25
2022-12-05T22:16:29.187Z,74.10
2022-12-05T22:19:00.642Z,74.51
2022-12-05T22:21:29.540Z,74.72
2022-12-05T22:23:58.087Z,74.66
2022-12-05T22:26:27.863Z,75.49
2022-12-05T22:28:57.861Z,74.74
2022-12-05T22:31:26.457Z,75.38
2022-12-05T22:33:54.883Z,75.25
2022-12-05T22:36:24.339Z,74.66
2022-12-05T22:38:55.132Z,75.00
2022-12-05T22:41:25.384Z,75.18
2022-12-05T22:43:56.352Z,75.17
2022-12-05T22:46:27.685Z,74.93
2022-12-05T22:48:56.554Z,75.57
2022-12-05T22:51:25.225Z,75.09
2022-12-05T22:53:54.263Z,75.17
2022-12-05T22:56:24.260Z,75.48
2022-12-05T22:58:55.149Z,75.18
2022-12-05T23:01:30.770Z,75.23
2022-12-05T23:04:03.791Z,75.14
2022-12-05T23:06:33.513Z,75.10
2022-12-05T23:09:02.736Z,75.00
2022-12-05T23:11:31.097Z,74.72
2022-12-05T23:14:02.157Z,74.92
2022-12-05T23:16:34.218Z,74.74
2022-12-05T23:19:04.414Z,75.06
2022-12-05T23:21:35.427Z,75.53
2022-12-05T23:24:05.552Z,74.72
2022-12-05T23:26:36.128Z,75.25
2022-12-05T23:29:04.799Z,75.74
2022-12-05T23:31:34.490Z,75.10
2022-12-05T23:34:04.013Z,75.06
2022-12-05T23:36:33.541Z,75.53
2022-12-05T23:39:02.416Z,75.67
2022-12-05T23:41:30.857Z,75.10
2022-12-05T23:43:59.562Z,75.10
2022-12-05T23:46:29.277Z,75.23
2022-12-05T23:48:59.130Z,75.01
2022-12-05T23:51:28.958Z,75.64
2022-12-05T23:53:59.078Z,74.88
2022-12-05T23:56:29.971Z,75.65
2022-12-05T23:58:58.343Z,75.91
